createdAt,value
2022-11-28T00:00:58.200Z,7.23
2022-11-28T00:06:00.489Z,7.24
2022-11-28T00:11:04.634Z,7.20
2022-11-28T00:16:08.824Z,7.16
2022-11-28T00:21:12.939Z,7.09
2022-11-28T00:26:17.113Z,7.04
2022-11-28T00:31:21.276Z,6.98
2022-11-28T00:36:25.435Z,6.91
2022-11-28T00:41:29.580Z,6.89
2022-11-28T00:46:33.786Z,6.85
2022-11-28T00:51:37.934Z,6.87
2022-11-28T00:56:42.073Z,6.84
2022-11-28T01:01:46.477Z,6.85
2022-11-28T01:06:50.423Z,6.87
2022-11-28T01:11:54.597Z,6.87
2022-11-28T01:16:58.744Z,6.81
2022-11-28T01:27:07.035Z,6.72
2022-11-28T01:32:11.223Z,6.67
2022-11-28T01:37:15.383Z,6.63
2022-11-28T01:42:19.536Z,6.60
2022-11-28T01:47:23.715Z,6.59
2022-11-28T01:52:27.849Z,6.58
2022-11-28T01:57:30.149Z,6.59
2022-11-28T02:02:34.383Z,6.55
2022-11-28T02:07:36.611Z,6.57
2022-11-28T02:12:40.759Z,6.56
2022-11-28T02:17:44.926Z,6.53
2022-11-28T02:22:49.065Z,6.53
2022-11-28T02:27:53.235Z,6.52
2022-11-28T02:32:57.361Z,6.53
2022-11-28T02:38:01.540Z,6.53
2022-11-28T02:43:05.687Z,6.56
2022-11-28T02:48:09.854Z,6.63
2022-11-28T02:53:14.071Z,6.61
2022-11-28T02:58:18.180Z,6.66
2022-11-28T03:03:22.365Z,6.64
2022-11-28T03:08:26.528Z,6.63
2022-11-28T03:13:30.660Z,6.67
2022-11-28T03:18:34.851Z,6.66
2022-11-28T03:23:39.028Z,6.67
2022-11-28T03:28:43.794Z,6.68
2022-11-28T03:33:47.321Z,6.69
2022-11-28T03:38:51.481Z,6.68
2022-11-28T03:43:55.686Z,6.69
2022-11-28T03:48:59.799Z,6.71
2022-11-28T03:54:02.117Z,6.71
2022-11-28T03:59:06.293Z,6.69
2022-11-28T04:04:10.436Z,6.67
2022-11-28T04:09:14.842Z,6.71
2022-11-28T04:14:18.725Z,6.70
2022-11-28T04:19:22.906Z,6.71
2022-11-28T04:24:27.065Z,6.72
2022-11-28T04:29:31.215Z,6.71
2022-11-28T04:34:35.413Z,6.71
2022-11-28T04:39:39.542Z,6.74
2022-11-28T04:44:44.123Z,6.81
2022-11-28T04:49:47.862Z,6.83
2022-11-28T04:54:52.057Z,6.85
2022-11-28T04:59:56.216Z,6.88
2022-11-28T05:05:00.386Z,6.93
2022-11-28T05:10:04.522Z,6.93
2022-11-28T05:15:08.682Z,6.96
2022-11-28T05:20:12.879Z,6.99
2022-11-28T05:25:17.027Z,7.01
2022-11-28T05:30:21.200Z,7.03
2022-11-28T05:35:25.359Z,7.04
2022-11-28T05:40:27.633Z,7.02
2022-11-28T05:45:32.011Z,7.01
2022-11-28T05:50:38.499Z,6.99
2022-11-28T05:55:38.215Z,6.97
2022-11-28T06:00:42.372Z,6.94
2022-11-28T06:05:46.672Z,6.88
2022-11-28T06:10:50.716Z,6.82
2022-11-28T06:15:54.880Z,6.77
2022-11-28T06:20:59.000Z,6.74
2022-11-28T06:26:03.175Z,6.71
2022-11-28T06:31:07.342Z,6.75
2022-11-28T06:36:11.526Z,6.76
2022-11-28T06:41:15.656Z,6.80
2022-11-28T06:46:19.922Z,6.80
2022-11-28T06:51:23.993Z,6.78
2022-11-28T06:56:28.230Z,6.82
2022-11-28T07:01:32.445Z,6.76
2022-11-28T07:06:36.482Z,6.77
2022-11-28T07:11:40.663Z,6.74
2022-11-28T07:16:44.885Z,6.73
2022-11-28T07:21:48.985Z,6.77
2022-11-28T07:26:53.181Z,6.76
2022-11-28T07:31:57.401Z,6.83
2022-11-28T07:36:59.569Z,6.79
2022-11-28T07:42:03.772Z,6.77
2022-11-28T07:47:07.908Z,6.77
2022-11-28T07:52:12.048Z,6.79
2022-11-28T07:57:16.209Z,6.80
2022-11-28T08:02:20.471Z,6.83
2022-11-28T08:07:24.604Z,6.83
2022-11-28T08:12:28.693Z,6.82
2022-11-28T08:17:32.898Z,6.86
2022-11-28T08:22:37.038Z,6.88
2022-11-28T08:27:41.182Z,6.93
2022-11-28T08:32:45.355Z,6.96
2022-11-28T08:37:49.539Z,6.96
2022-11-28T08:42:53.668Z,6.98
2022-11-28T08:47:57.829Z,7.01
2022-11-28T08:53:07.841Z,7.02
2022-11-28T08:58:06.269Z,7.03
2022-11-28T09:03:10.344Z,7.05
2022-11-28T09:08:14.523Z,7.08
2022-11-28T09:13:18.656Z,7.12
2022-11-28T09:18:22.843Z,7.16
2022-11-28T09:28:29.270Z,7.29
2022-11-28T09:38:35.713Z,7.37
2022-11-28T09:48:42.112Z,7.42
2022-11-28T09:53:44.398Z,7.47
2022-11-28T09:58:55.560Z,7.47
2022-11-28T10:03:57.976Z,7.50
2022-11-28T10:09:09.031Z,7.54
2022-11-28T10:14:11.301Z,7.56
2022-11-28T10:19:52.197Z,7.61
2022-11-28T10:24:31.714Z,7.61
2022-11-28T10:29:43.149Z,7.63
2022-11-28T10:35:01.132Z,7.63
2022-11-28T10:40:05.240Z,7.69
2022-11-28T10:45:16.402Z,7.76
2022-11-28T10:50:32.136Z,7.78
2022-11-28T10:55:38.733Z,7.75
2022-11-28T11:00:41.040Z,7.78
2022-11-28T11:05:43.308Z,7.79
2022-11-28T11:10:47.423Z,7.80
2022-11-28T11:15:51.701Z,7.80
2022-11-28T11:20:55.781Z,7.81
2022-11-28T11:25:59.954Z,7.80
2022-11-28T11:31:04.177Z,7.81
2022-11-28T11:36:08.258Z,7.81
2022-11-28T11:41:12.406Z,7.89
2022-11-28T11:46:16.659Z,7.97
2022-11-28T11:51:20.765Z,7.94
2022-11-28T11:56:24.940Z,8.00
2022-11-28T12:01:29.086Z,8.01
2022-11-28T12:06:33.243Z,8.00
2022-11-28T12:11:38.497Z,7.98
2022-11-28T12:16:41.683Z,7.94
2022-11-28T12:21:45.739Z,7.87
2022-11-28T12:26:49.886Z,7.83
2022-11-28T12:31:54.036Z,7.76
2022-11-28T12:36:58.177Z,7.74
2022-11-28T12:42:02.473Z,7.73
2022-11-28T12:47:04.654Z,7.69
2022-11-28T12:52:08.838Z,7.69
2022-11-28T12:57:11.066Z,7.64
2022-11-28T13:02:15.298Z,7.63
2022-11-28T13:07:19.416Z,7.63
2022-11-28T13:12:23.550Z,7.61
2022-11-28T13:17:27.700Z,7.62
2022-11-28T13:22:31.900Z,7.66
2022-11-28T13:27:36.059Z,7.67
2022-11-28T13:32:40.185Z,7.71
2022-11-28T13:43:04.447Z,7.71
2022-11-28T13:47:52.699Z,7.70
2022-11-28T13:52:56.860Z,7.63
2022-11-28T13:58:01.013Z,7.64
2022-11-28T14:03:05.218Z,7.64
2022-11-28T14:08:09.444Z,7.65
2022-11-28T14:13:13.480Z,7.68
2022-11-28T14:18:47.943Z,7.70
2022-11-28T14:23:21.803Z,7.71
2022-11-28T14:28:25.999Z,7.65
2022-11-28T14:33:30.150Z,7.55
2022-11-28T14:38:34.324Z,7.59
2022-11-28T14:43:36.585Z,7.59
2022-11-28T14:48:40.789Z,7.57
2022-11-28T14:53:44.923Z,7.52
2022-11-28T14:58:49.229Z,7.52
2022-11-28T15:03:53.216Z,7.47
2022-11-28T15:08:57.421Z,7.45
2022-11-28T15:14:01.563Z,7.45
2022-11-28T15:19:05.701Z,7.43
2022-11-28T15:24:09.877Z,7.41
2022-11-28T15:29:14.054Z,7.41
2022-11-28T15:34:18.206Z,7.40
2022-11-28T15:39:22.344Z,7.41
2022-11-28T15:44:26.530Z,7.42
2022-11-28T15:49:30.714Z,7.40
2022-11-28T15:54:34.857Z,7.40
2022-11-28T15:59:39.003Z,7.38
2022-11-28T16:04:43.621Z,7.36
2022-11-28T16:09:47.358Z,7.37
2022-11-28T16:14:51.504Z,7.37
2022-11-28T16:19:55.693Z,7.36
2022-11-28T16:24:59.845Z,7.37
2022-11-28T16:30:02.127Z,7.38
2022-11-28T16:35:06.258Z,7.36
2022-11-28T16:40:08.530Z,7.37
2022-11-28T16:45:10.829Z,7.38
2022-11-28T16:50:16.075Z,7.37
2022-11-28T16:55:19.100Z,7.37
2022-11-28T17:00:23.272Z,7.39
2022-11-28T17:05:27.472Z,7.41
2022-11-28T17:10:31.619Z,7.36
2022-11-28T17:15:35.776Z,7.33
2022-11-28T17:20:39.952Z,7.34
2022-11-28T17:25:44.146Z,7.33
2022-11-28T17:30:48.281Z,7.38
2022-11-28T17:35:52.437Z,7.40
2022-11-28T17:40:56.565Z,7.42
2022-11-28T17:46:00.831Z,7.44
2022-11-28T17:51:04.964Z,7.48
2022-11-28T17:56:09.067Z,7.51
2022-11-28T18:01:13.339Z,7.53
2022-11-28T18:06:17.427Z,7.55
2022-11-28T18:11:21.541Z,7.59
2022-11-28T18:16:25.819Z,7.62
2022-11-28T18:21:29.925Z,7.63
2022-11-28T18:26:34.079Z,7.64
2022-11-28T18:31:36.351Z,7.67
2022-11-28T18:36:40.461Z,7.66
2022-11-28T18:41:42.724Z,7.67
2022-11-28T18:46:46.942Z,7.68
2022-11-28T18:51:49.202Z,7.67
2022-11-28T18:56:53.340Z,7.69
2022-11-28T19:01:57.579Z,7.68
2022-11-28T19:07:01.653Z,7.68
2022-11-28T19:12:05.845Z,7.72
2022-11-28T19:17:10.041Z,7.72
2022-11-28T19:22:14.148Z,7.73
2022-11-28T19:27:18.320Z,7.74
2022-11-28T19:32:22.484Z,7.75
2022-11-28T19:37:26.658Z,7.75
2022-11-28T19:42:30.812Z,7.77
2022-11-28T19:47:35.014Z,7.79
2022-11-28T19:52:39.162Z,7.82
2022-11-28T19:57:43.307Z,7.83
2022-11-28T20:02:47.542Z,7.84
2022-11-28T20:07:56.900Z,7.86
2022-11-28T20:12:55.786Z,7.87
2022-11-28T20:17:59.989Z,7.88
2022-11-28T20:23:04.117Z,7.90
2022-11-28T20:28:08.305Z,7.92
2022-11-28T20:33:12.422Z,7.93
2022-11-28T20:38:14.702Z,7.93
2022-11-28T20:43:18.868Z,7.93
2022-11-28T20:48:23.040Z,7.97
2022-11-28T20:53:27.245Z,7.98
2022-11-28T20:58:31.360Z,8.00
2022-11-28T21:03:35.549Z,8.01
2022-11-28T21:08:39.692Z,8.01
2022-11-28T21:13:43.847Z,8.02
2022-11-28T21:18:47.976Z,8.02
2022-11-28T21:23:52.171Z,8.02
2022-11-28T21:28:56.349Z,8.03
2022-11-28T21:34:00.507Z,8.04
2022-11-28T21:39:04.652Z,8.02
2022-11-28T21:44:08.791Z,8.05
2022-11-28T21:49:12.994Z,8.05
2022-11-28T21:54:17.148Z,8.05
2022-11-28T21:59:21.320Z,8.05
2022-11-28T22:04:25.475Z,8.05
2022-11-28T22:14:36.845Z,8.04
2022-11-28T22:19:37.927Z,8.06
2022-11-28T22:24:42.103Z,8.06
2022-11-28T22:29:44.382Z,8.06
2022-11-28T22:34:48.522Z,8.06
2022-11-28T22:39:50.823Z,8.06
2022-11-28T22:44:55.002Z,8.07
2022-11-28T22:49:59.143Z,8.06
2022-11-28T22:55:03.293Z,8.06
2022-11-28T23:00:07.474Z,8.07
2022-11-28T23:05:11.623Z,8.06
2022-11-28T23:10:15.760Z,8.07
2022-11-28T23:15:19.951Z,8.07
2022-11-28T23:20:24.119Z,8.08
2022-11-28T23:25:28.253Z,8.08
2022-11-28T23:30:32.403Z,8.08
2022-11-28T23:35:36.720Z,8.09
2022-11-28T23:40:40.741Z,8.09
2022-11-28T23:45:44.960Z,8.11
2022-11-28T23:50:49.042Z,8.11
2022-11-28T23:55:53.255Z,8.10
